Ana Sayfa
METAR-TAF:

METAR-TAF

Havaalanları :

Saint-Pierre, Réunion

Enlem: 21-20S, Boylam: 055-29E, yükseklik: 52 m

Güncel hava durumu gözlemi

Rapor saat 03:00 UTC de 17 dakika önce yapıldı.
Rüzgar doğu/güneydoğudan 4 kt, doğu ve güney/güneydoğu arasında değişken
Sıcaklık 27°C
Nem 74%
Basınç 1016 hPa
Görüş mesafesi 10 km veya daha fazla
1500 m altında bulut yok ve kümülonimbus yok

METAR: FMEP 190300Z AUTO 11004KT 080V150 CAVOK 27/22 Q1016 BECMG 24010KT

Saat: 07:17 (03:17 UTC)

Tahmin

Rapor saat 02:00 UTC de 1 saat ve 17 dakika önce yapıldı.
Ayın 19'si saat 03 UTC'den ayın 19'si saat 12 UTC'ye kadar geçerli Tahmin
Rüzgar kuzeydoğudan 6 kt
Görüş mesafesi 10 km veya daha fazla
3300 ft yükseklikte az bulutlu
Dönüşüyor
ayın 19'si saat 04 UTC'den ayın 19'si saat 05 UTC'ye kadar
Rüzgar batı/güneybatıdan 10 kt

TAF: FMEP 190200Z 1903/1912 04006KT 9999 FEW033 BECMG 1904/1905 24010KT

4.000'den fazla havaalanı için hava durumu gözlemleri ve tahminleri (METAR ve TAF raporları).

Kullanılabilir istasyonlar harita üzerinde sarı ve kırmızı noktalarla gösterilir.

İstasyonun adını görmek için fareyi noktanın üzerinde gezdirin.

Sonrasında hava gözlem ve tahminlerini görmek için tıklayın.

Haritayı değiştirmek için: yaklaştırmak için siyah artı işaretli yeşil düğmeye ve uzaklaştırmak için de eksi işaretli düğmeye hızla tıklayın; bitişik haritalar için yeşil okları kullanın.


METAR-TAF: